createdAt,value
2022-08-20T00:02:57.578Z,19.15
2022-08-20T00:08:03.940Z,19.22
2022-08-20T00:13:10.671Z,19.12
2022-08-20T00:18:16.060Z,19.06
2022-08-20T00:23:20.553Z,19.07
2022-08-20T00:28:23.423Z,18.94
2022-08-20T00:33:26.474Z,18.87
2022-08-20T00:38:31.538Z,18.85
2022-08-20T00:43:37.981Z,18.86
2022-08-20T00:48:44.045Z,18.86
2022-08-20T00:53:48.223Z,18.87
2022-08-20T00:58:51.899Z,18.85
2022-08-20T01:03:57.059Z,18.87
2022-08-20T01:09:02.248Z,18.80
2022-08-20T01:14:22.806Z,18.75
2022-08-20T01:19:30.352Z,18.79
2022-08-20T01:24:38.043Z,18.76
2022-08-20T01:29:42.149Z,18.70
2022-08-20T01:34:44.862Z,18.72
2022-08-20T01:39:47.561Z,18.70
2022-08-20T01:44:52.893Z,18.70
2022-08-20T01:49:58.571Z,18.69
2022-08-20T01:55:02.671Z,18.68
2022-08-20T02:00:14.609Z,18.61
2022-08-20T02:05:24.321Z,18.60
2022-08-20T02:10:33.765Z,18.67
2022-08-20T02:15:42.896Z,18.70
2022-08-20T02:20:46.318Z,18.72
2022-08-20T02:25:49.193Z,18.81
2022-08-20T02:30:55.300Z,18.79
2022-08-20T02:35:58.265Z,18.79
2022-08-20T02:41:00.962Z,18.83
2022-08-20T02:46:05.959Z,18.82
2022-08-20T02:51:09.448Z,18.70
2022-08-20T02:56:12.813Z,18.71
2022-08-20T03:01:18.435Z,18.71
2022-08-20T03:06:22.045Z,18.73
2022-08-20T03:11:24.811Z,18.64
2022-08-20T03:16:29.008Z,18.57
2022-08-20T03:21:32.302Z,18.52
2022-08-20T03:26:35.178Z,18.56
2022-08-20T03:31:39.520Z,18.52
2022-08-20T03:36:42.756Z,18.52
2022-08-20T03:41:45.486Z,18.53
2022-08-20T03:46:49.775Z,18.57
2022-08-20T03:51:57.583Z,18.58
2022-08-20T03:57:02.872Z,18.64
2022-08-20T04:02:08.084Z,18.77
2022-08-20T04:07:12.229Z,18.83
2022-08-20T04:12:14.940Z,18.87
2022-08-20T04:17:22.839Z,18.81
2022-08-20T04:22:25.530Z,18.73
2022-08-20T04:27:28.744Z,18.67
2022-08-20T04:32:34.328Z,18.65
2022-08-20T04:37:40.309Z,18.71
2022-08-20T04:42:43.551Z,18.82
2022-08-20T04:47:47.758Z,18.84
2022-08-20T04:52:50.511Z,18.84
2022-08-20T04:57:55.493Z,18.83
2022-08-20T05:02:59.767Z,18.76
2022-08-20T05:08:03.260Z,18.73
2022-08-20T05:13:06.280Z,18.77
2022-08-20T05:18:10.536Z,18.85
2022-08-20T05:23:14.672Z,18.89
2022-08-20T05:28:19.683Z,18.86
2022-08-20T05:33:25.284Z,18.83
2022-08-20T05:38:30.961Z,18.90
2022-08-20T05:43:33.961Z,18.83
2022-08-20T05:48:38.347Z,18.75
2022-08-20T05:53:41.604Z,18.71
2022-08-20T05:58:44.373Z,18.76
2022-08-20T06:04:05.833Z,18.77
2022-08-20T06:09:08.793Z,18.78
2022-08-20T06:14:11.940Z,18.81
2022-08-20T06:19:16.401Z,18.80
2022-08-20T06:24:27.911Z,18.79
2022-08-20T06:29:33.210Z,18.84
2022-08-20T06:34:37.417Z,18.84
2022-08-20T06:39:40.208Z,18.81
2022-08-20T06:44:43.060Z,18.79
2022-08-20T06:49:47.519Z,18.84
2022-08-20T06:54:50.247Z,18.83
2022-08-20T06:59:55.784Z,18.87
2022-08-20T07:05:00.166Z,18.89
2022-08-20T07:10:03.453Z,18.90
2022-08-20T07:15:08.917Z,18.93
2022-08-20T07:20:16.139Z,18.95
2022-08-20T07:25:21.081Z,18.96
2022-08-20T07:30:56.114Z,18.96
2022-08-20T07:36:03.955Z,19.04
2022-08-20T07:41:08.406Z,19.12
2022-08-20T07:46:11.188Z,19.16
2022-08-20T07:51:17.655Z,19.19
2022-08-20T07:56:22.738Z,19.15
2022-08-20T08:01:30.285Z,19.13
2022-08-20T08:06:34.689Z,19.13
2022-08-20T08:11:39.753Z,19.17
2022-08-20T08:16:45.586Z,19.24
2022-08-20T08:21:49.797Z,19.31
2022-08-20T08:26:52.787Z,19.28
2022-08-20T08:31:55.538Z,19.35
2022-08-20T08:37:02.067Z,19.42
2022-08-20T08:42:20.503Z,19.45
2022-08-20T08:47:29.467Z,19.53
2022-08-20T08:52:37.047Z,19.59
2022-08-20T08:57:41.000Z,19.68
2022-08-20T09:02:55.034Z,19.76
2022-08-20T09:08:00.224Z,19.77
2022-08-20T09:13:04.110Z,19.89
2022-08-20T09:18:06.921Z,19.95
2022-08-20T09:23:11.004Z,19.97
2022-08-20T09:28:13.699Z,19.98
2022-08-20T09:33:17.202Z,19.93
2022-08-20T09:38:21.298Z,19.91
2022-08-20T09:43:23.994Z,19.87
2022-08-20T09:48:31.858Z,19.88
2022-08-20T09:53:36.534Z,19.82
2022-08-20T09:58:46.874Z,19.77
2022-08-20T10:03:51.060Z,19.76
2022-08-20T10:08:55.279Z,19.79
2022-08-20T10:13:58.000Z,19.82
2022-08-20T10:19:01.534Z,19.77
2022-08-20T10:24:06.066Z,19.71
2022-08-20T10:29:08.858Z,19.69
2022-08-20T10:34:11.638Z,19.73
2022-08-20T10:39:15.874Z,19.74
2022-08-20T10:44:18.674Z,19.74
2022-08-20T10:49:21.491Z,19.79
2022-08-20T10:54:25.697Z,19.82
2022-08-20T10:59:28.417Z,19.85
2022-08-20T11:04:31.158Z,19.92
2022-08-20T11:09:35.292Z,19.95
2022-08-20T11:14:38.200Z,20.06
2022-08-20T11:19:42.138Z,20.15
2022-08-20T11:24:47.134Z,20.17
2022-08-20T11:29:50.141Z,20.18
2022-08-20T11:34:53.101Z,20.29
2022-08-20T11:39:57.220Z,20.19
2022-08-20T11:45:00.024Z,20.26
2022-08-20T11:50:04.642Z,20.29
2022-08-20T11:55:11.486Z,20.36
2022-08-20T12:00:18.163Z,20.45
2022-08-20T12:05:21.506Z,20.51
2022-08-20T12:10:26.856Z,20.55
2022-08-20T12:15:29.855Z,20.50
2022-08-20T12:20:32.558Z,20.50
2022-08-20T12:25:36.712Z,20.49
2022-08-20T12:30:39.635Z,20.58
2022-08-20T12:35:42.545Z,20.65
2022-08-20T12:40:46.647Z,20.72
2022-08-20T12:45:49.399Z,20.76
2022-08-20T12:50:52.826Z,20.70
2022-08-20T12:55:56.984Z,20.68
2022-08-20T13:00:59.808Z,20.66
2022-08-20T13:06:03.001Z,20.62
2022-08-20T13:11:07.464Z,20.63
2022-08-20T13:16:10.231Z,20.66
2022-08-20T13:21:12.999Z,20.68
2022-08-20T13:26:17.181Z,20.67
2022-08-20T13:31:20.595Z,20.67
2022-08-20T13:36:24.705Z,20.66
2022-08-20T13:41:29.001Z,20.63
2022-08-20T13:46:32.018Z,20.62
2022-08-20T13:51:34.741Z,20.61
2022-08-20T13:56:38.869Z,20.60
2022-08-20T14:01:41.724Z,20.57
2022-08-20T14:06:44.418Z,20.51
2022-08-20T14:11:48.519Z,20.45
2022-08-20T14:16:51.305Z,20.48
2022-08-20T14:21:54.078Z,20.55
2022-08-20T14:26:58.117Z,20.51
2022-08-20T14:32:00.874Z,20.52
2022-08-20T14:37:12.982Z,20.56
2022-08-20T14:42:17.435Z,20.59
2022-08-20T14:47:22.344Z,20.60
2022-08-20T14:52:28.239Z,20.65
2022-08-20T14:57:33.218Z,20.64
2022-08-20T15:02:36.080Z,20.61
2022-08-20T15:07:40.655Z,20.63
2022-08-20T15:12:45.016Z,20.69
2022-08-20T15:17:50.903Z,20.70
2022-08-20T15:22:54.142Z,20.75
2022-08-20T15:28:01.591Z,20.76
2022-08-20T15:33:04.826Z,20.76
2022-08-20T15:38:07.860Z,20.75
2022-08-20T15:43:11.960Z,20.72
2022-08-20T15:48:17.600Z,20.70
2022-08-20T15:53:25.809Z,20.71
2022-08-20T15:58:36.354Z,20.66
2022-08-20T16:03:56.574Z,20.64
2022-08-20T16:09:08.418Z,20.62
2022-08-20T16:14:16.563Z,20.56
2022-08-20T16:19:24.202Z,20.52
2022-08-20T16:24:27.022Z,20.49
2022-08-20T16:29:40.444Z,20.47
2022-08-20T16:34:46.295Z,20.42
2022-08-20T16:40:08.401Z,20.37
2022-08-20T16:45:15.172Z,20.40
2022-08-20T16:50:20.989Z,20.34
2022-08-20T16:55:24.853Z,20.30
2022-08-20T17:00:35.252Z,20.28
2022-08-20T17:05:45.976Z,20.28
2022-08-20T17:10:58.768Z,20.25
2022-08-20T17:16:06.301Z,20.17
2022-08-20T17:21:16.661Z,20.11
2022-08-20T17:26:22.812Z,20.00
2022-08-20T17:31:38.602Z,19.90
2022-08-20T17:36:49.531Z,19.87
2022-08-20T17:41:56.028Z,19.89
2022-08-20T17:47:02.395Z,19.92
2022-08-20T17:52:07.571Z,19.90
2022-08-20T17:57:14.415Z,19.88
2022-08-20T18:02:18.770Z,19.85
2022-08-20T18:07:25.798Z,19.83
2022-08-20T18:12:34.888Z,19.84
2022-08-20T18:17:58.981Z,19.84
2022-08-20T18:23:05.101Z,19.84
2022-08-20T18:28:12.231Z,19.80
2022-08-20T18:33:27.434Z,19.74
2022-08-20T18:38:31.916Z,19.73
2022-08-20T18:43:35.750Z,19.73
2022-08-20T18:48:51.541Z,19.69
2022-08-20T18:53:54.503Z,19.65
2022-08-20T18:59:01.986Z,19.63
2022-08-20T19:04:18.023Z,19.64
2022-08-20T19:09:28.792Z,19.59
2022-08-20T19:14:59.232Z,19.55
2022-08-20T19:20:06.256Z,19.49
2022-08-20T19:25:10.630Z,19.49
2022-08-20T19:30:13.668Z,19.48
2022-08-20T19:35:18.979Z,19.45
2022-08-20T19:40:28.204Z,19.43
2022-08-20T19:45:33.286Z,19.43
2022-08-20T19:50:43.289Z,19.41
2022-08-20T19:55:46.596Z,19.42
2022-08-20T20:00:51.533Z,19.43
2022-08-20T20:05:59.466Z,19.41
2022-08-20T20:11:03.153Z,19.41
2022-08-20T20:16:06.228Z,19.38
2022-08-20T20:21:21.984Z,19.38
2022-08-20T20:26:25.558Z,19.35
2022-08-20T20:31:30.418Z,19.35
2022-08-20T20:36:38.837Z,19.33
2022-08-20T20:41:51.718Z,19.31
2022-08-20T20:46:57.935Z,19.28
2022-08-20T20:52:03.946Z,19.27
2022-08-20T20:57:08.739Z,19.29
2022-08-20T21:02:11.513Z,19.29
2022-08-20T21:07:17.560Z,19.27
2022-08-20T21:12:21.670Z,19.27
2022-08-20T21:17:24.441Z,19.29
2022-08-20T21:22:28.828Z,19.27
2022-08-20T21:27:32.104Z,19.22
2022-08-20T21:32:34.899Z,19.22
2022-08-20T21:37:39.629Z,19.24
2022-08-20T21:42:42.426Z,19.25
2022-08-20T21:47:48.968Z,19.27
2022-08-20T21:52:55.426Z,19.17
2022-08-20T21:58:02.979Z,19.11
2022-08-20T22:03:06.246Z,19.17
2022-08-20T22:08:10.990Z,19.21
2022-08-20T22:13:13.939Z,19.17
2022-08-20T22:18:17.160Z,19.14
2022-08-20T22:23:21.589Z,19.17
2022-08-20T22:28:25.235Z,19.15
2022-08-20T22:33:28.015Z,19.08
2022-08-20T22:38:32.418Z,18.99
2022-08-20T22:43:35.276Z,18.91
2022-08-20T22:48:47.869Z,18.90
2022-08-20T22:53:54.638Z,18.86
2022-08-20T22:58:59.130Z,18.78
2022-08-20T23:04:07.150Z,18.71
2022-08-20T23:09:12.808Z,18.71
2022-08-20T23:14:16.034Z,18.79
2022-08-20T23:19:21.568Z,18.79
2022-08-20T23:24:25.923Z,18.78
2022-08-20T23:29:28.958Z,18.79
2022-08-20T23:34:31.789Z,18.79
2022-08-20T23:39:36.151Z,18.79
2022-08-20T23:44:38.935Z,18.77
2022-08-20T23:49:41.689Z,18.62
2022-08-20T23:54:45.806Z,18.56
2022-08-20T23:59:48.586Z,18.53
